Time;durP1;ratioP1;P1;durP2;ratioP2;P2;SDS_P1;SDS_P2;PMS_P1;PMS_P2;Temp;Humidity;BMP_temperature;BMP_pressure;BME280_temperature;BME280_humidity;BME280_pressure;Samples;Min_cycle;Max_cycle;Signal;HPM_P1;HPM_P2
2022/06/28 00:01:26;;;;;;;47.60;44.27;;;;;;;14.17;100.00;101927.84;2016900;71;33030;-73
2022/06/28 00:07:11;;;;;;;50.83;47.20;;;;;;;14.12;100.00;101938.47;2016735;71;32943;-74
2022/06/28 00:12:55;;;;;;;51.37;47.47;;;;;;;14.11;100.00;101941.02;1997388;71;32862;-73
2022/06/28 00:18:41;;;;;;;52.20;48.30;;;;;;;13.89;100.00;101940.48;2004104;71;32835;-75
2022/06/28 00:24:26;;;;;;;51.13;47.33;;;;;;;13.90;100.00;101937.97;2013266;71;32881;-74
2022/06/28 00:30:14;;;;;;;49.77;46.07;;;;;;;13.86;100.00;101939.66;2004288;71;33379;-74
2022/06/28 00:35:58;;;;;;;51.07;47.13;;;;;;;13.61;100.00;101937.12;2016886;71;32840;-74
2022/06/28 00:41:44;;;;;;;52.13;48.30;;;;;;;13.80;100.00;101940.20;2009477;71;32929;-73
2022/06/28 00:47:29;;;;;;;52.20;48.00;;;;;;;13.83;100.00;101947.17;2009751;71;33352;-74
2022/06/28 00:53:17;;;;;;;51.10;47.30;;;;;;;13.83;100.00;101941.03;1997084;71;33348;-73
2022/06/28 00:59:02;;;;;;;51.17;47.43;;;;;;;13.81;100.00;101936.30;1995345;71;32768;-74
2022/06/28 01:04:46;;;;;;;50.83;47.00;;;;;;;13.72;100.00;101938.53;2013082;71;32892;-74
2022/06/28 01:10:31;;;;;;;49.17;45.33;;;;;;;13.78;100.00;101945.80;2003708;71;32889;-73
2022/06/28 01:16:16;;;;;;;51.13;47.33;;;;;;;13.71;100.00;101941.88;2009996;71;32870;-73
2022/06/28 01:22:03;;;;;;;50.13;46.60;;;;;;;13.34;100.00;101951.92;2015557;71;32915;-74
2022/06/28 01:27:48;;;;;;;51.90;47.90;;;;;;;13.38;100.00;101951.64;2004386;71;32898;-74
2022/06/28 01:33:36;;;;;;;52.50;48.73;;;;;;;13.20;100.00;101971.14;2011620;71;33344;-72
2022/06/28 01:39:20;;;;;;;51.50;47.83;;;;;;;13.24;100.00;101974.22;1998659;71;33423;-71
2022/06/28 01:45:08;;;;;;;49.93;46.33;;;;;;;13.25;100.00;101971.72;2009401;71;32930;-72
2022/06/28 01:50:55;;;;;;;52.03;48.37;;;;;;;13.19;100.00;101976.98;2011887;71;32831;-71
2022/06/28 01:56:39;;;;;;;53.37;49.40;;;;;;;13.18;100.00;101979.49;2011133;71;32947;-71
2022/06/28 02:02:23;;;;;;;53.63;49.60;;;;;;;13.18;100.00;101979.49;2010042;71;32890;-72
2022/06/28 02:11:14;;;;;;;51.27;47.53;;;;;;;13.20;100.00;101978.13;2042663;69;32566;-71
2022/06/28 02:13:45;;;;;;;52.40;48.50;;;;;;;12.98;100.00;101990.02;2014790;70;26222;-70
2022/06/28 02:16:15;;;;;;;52.23;48.63;;;;;;;12.95;100.00;101982.75;1939570;73;26248;-70
2022/06/28 02:18:45;;;;;;;49.67;46.10;;;;;;;13.02;100.00;101984.72;1937939;73;26232;-71
2022/06/28 02:21:16;;;;;;;50.00;46.30;;;;;;;12.90;100.00;101986.91;1963503;72;26685;-71
2022/06/28 02:23:46;;;;;;;51.43;47.47;;;;;;;12.93;100.00;101986.36;1940304;73;26744;-71
2022/06/28 02:26:16;;;;;;;50.50;46.43;;;;;;;12.96;100.00;101985.83;1974190;72;26648;-72
2022/06/28 02:28:47;;;;;;;52.00;48.27;;;;;;;12.89;100.00;101988.02;1935367;73;26800;-71
2022/06/28 02:31:18;;;;;;;49.97;46.17;;;;;;;12.87;100.00;101984.68;1972532;72;26205;-71
2022/06/28 02:33:48;;;;;;;49.63;46.13;;;;;;;12.93;100.00;101985.80;1935953;73;26269;-71
2022/06/28 02:41:59;;;;;;;50.40;46.80;;;;;;;12.91;100.00;101983.86;1909376;73;26196;-70
2022/06/28 02:44:29;;;;;;;51.50;47.90;;;;;;;12.70;100.00;101985.73;1937241;73;26667;-71
2022/06/28 02:46:59;;;;;;;50.63;46.90;;;;;;;12.64;100.00;101985.41;2015852;70;26218;-72
2022/06/28 02:49:30;;;;;;;51.13;47.37;;;;;;;12.54;100.00;101983.95;1932798;73;26660;-70
2022/06/28 02:52:00;;;;;;;49.10;45.40;;;;;;;12.50;100.00;101980.58;2010195;70;26268;-71
2022/06/28 02:54:31;;;;;;;50.73;46.63;;;;;;;12.56;100.00;101986.48;1934267;73;26684;-72
2022/06/28 02:57:01;;;;;;;49.73;45.67;;;;;;;12.52;100.00;101981.17;1934469;73;26293;-70
2022/06/28 02:59:31;;;;;;;50.60;46.83;;;;;;;12.40;100.00;101984.73;1971376;72;26202;-70
2022/06/28 03:02:01;;;;;;;49.83;46.27;;;;;;;12.63;100.00;101988.45;1935508;73;26750;-70
2022/06/28 03:04:32;;;;;;;48.70;44.97;;;;;;;12.72;100.00;101977.08;1976848;72;26221;-71
2022/06/28 03:07:02;;;;;;;48.77;45.17;;;;;;;12.68;100.00;101980.13;1934695;73;26246;-72
2022/06/28 03:09:33;;;;;;;51.67;47.97;;;;;;;12.57;100.00;101983.44;1928901;74;26301;-72
2022/06/28 03:12:05;;;;;;;50.50;46.97;;;;;;;12.63;100.00;101988.45;1882732;76;26260;-72
2022/06/28 03:14:35;;;;;;;52.17;47.97;;;;;;;12.67;100.00;101987.64;1937847;74;26305;-70
2022/06/28 03:17:07;;;;;;;50.63;46.87;;;;;;;12.54;100.00;101982.56;1882778;76;26202;-70
2022/06/28 03:19:38;;;;;;;51.87;47.97;;;;;;;12.41;100.00;101991.41;1904202;75;26225;-70
2022/06/28 03:22:08;;;;;;;50.37;46.33;;;;;;;12.62;100.00;101985.41;1937205;74;26679;-70
2022/06/28 03:24:38;;;;;;;48.50;45.13;;;;;;;12.49;100.00;101981.72;1882300;76;26231;-70
2022/06/28 03:27:08;;;;;;;50.23;46.17;;;;;;;12.46;100.00;101978.05;1903624;75;26265;-70
2022/06/28 03:29:39;;;;;;;50.87;47.17;;;;;;;12.51;100.00;101983.11;1937117;74;26176;-72
2022/06/28 03:32:10;;;;;;;50.33;46.90;;;;;;;12.29;100.00;101980.47;1937133;74;26286;-70
2022/06/28 03:34:40;;;;;;;49.50;46.00;;;;;;;12.26;100.00;101983.81;1882161;76;26214;-73
2022/06/28 03:37:10;;;;;;;50.53;46.93;;;;;;;12.24;100.00;101977.66;1903647;75;26627;-70
2022/06/28 03:39:40;;;;;;;51.10;47.60;;;;;;;12.40;100.00;101976.37;1937141;74;26301;-70
2022/06/28 03:42:11;;;;;;;47.20;43.73;;;;;;;12.46;100.00;101970.54;1882181;76;26199;-70
2022/06/28 03:44:41;;;;;;;50.60;46.97;;;;;;;12.31;100.00;101975.48;1903608;75;26180;-70
2022/06/28 03:47:12;;;;;;;51.43;47.37;;;;;;;12.54;100.00;101971.97;1937289;74;26297;-70
2022/06/28 03:49:42;;;;;;;50.50;46.43;;;;;;;12.52;100.00;101963.89;1882131;76;26199;-70
2022/06/28 03:52:13;;;;;;;50.90;47.13;;;;;;;12.57;100.00;101968.11;1903683;75;26251;-72
2022/06/28 03:54:44;;;;;;;50.30;46.63;;;;;;;12.60;100.00;101965.31;1937201;74;26302;-70
2022/06/28 04:00:28;;;;;;;49.90;46.50;;;;;;;12.66;100.00;101953.09;1977259;70;39785;-72
2022/06/28 04:06:15;;;;;;;51.53;47.83;;;;;;;12.27;100.00;101959.03;2007895;71;32889;-71
2022/06/28 04:11:59;;;;;;;49.53;45.87;;;;;;;12.11;100.00;101960.02;2016957;71;33366;-71
2022/06/28 04:17:45;;;;;;;49.73;46.07;;;;;;;12.13;100.00;101951.41;1994279;71;32837;-72
2022/06/28 04:23:29;;;;;;;48.37;44.80;;;;;;;12.43;100.00;101946.56;2007756;71;32951;-71
2022/06/28 04:29:13;;;;;;;50.77;47.03;;;;;;;12.54;100.00;101948.27;2007885;71;32827;-71
2022/06/28 04:34:58;;;;;;;51.07;47.07;;;;;;;12.77;100.00;101944.48;2005824;71;33426;-71
2022/06/28 04:40:42;;;;;;;52.50;48.50;;;;;;;12.68;100.00;101943.33;2004113;71;32936;-70
2022/06/28 04:46:28;;;;;;;47.97;44.37;;;;;;;12.57;100.00;101933.27;1995653;71;32906;-71
2022/06/28 04:52:12;;;;;;;49.57;45.57;;;;;;;12.84;100.00;101930.27;2007990;71;33378;-72
2022/06/28 04:57:57;;;;;;;49.53;46.03;;;;;;;12.93;100.00;101926.39;2015075;71;32828;-71
2022/06/28 05:03:43;;;;;;;51.37;47.73;;;;;;;13.17;100.00;101926.22;1995453;71;32823;-72
2022/06/28 05:09:27;;;;;;;51.57;47.67;;;;;;;13.23;100.00;101927.89;2018599;71;32883;-71
2022/06/28 05:15:13;;;;;;;50.30;46.67;;;;;;;13.49;100.00;101924.02;2013194;71;33002;-71
2022/06/28 05:20:57;;;;;;;50.70;46.80;;;;;;;13.74;100.00;101926.52;1999084;71;32886;-71
2022/06/28 05:26:42;;;;;;;49.73;45.70;;;;;;;13.77;100.00;101929.61;2015177;71;32832;-72
2022/06/28 05:32:27;;;;;;;50.20;46.20;;;;;;;13.90;100.00;101926.80;2006049;71;32909;-71
2022/06/28 05:38:11;;;;;;;49.57;45.83;;;;;;;14.00;100.00;101922.57;1995330;71;32871;-71
2022/06/28 05:43:56;;;;;;;51.83;47.57;;;;;;;13.98;100.00;101924.83;2000215;71;32957;-71
2022/06/28 05:49:43;;;;;;;50.73;46.93;;;;;;;14.11;100.00;101921.45;2003844;71;32928;-70
2022/06/28 05:55:29;;;;;;;52.77;48.47;;;;;;;14.21;100.00;101924.76;1991552;71;32827;-72
2022/06/28 06:01:14;;;;;;;50.30;46.43;;;;;;;14.36;100.00;101918.62;2013747;71;33378;-70
2022/06/28 06:06:58;;;;;;;52.77;48.50;;;;;;;14.44;100.00;101913.83;2009337;71;32843;-70
2022/06/28 06:12:41;;;;;;;53.27;49.30;;;;;;;14.59;100.00;101910.12;2016885;71;32815;-69
2022/06/28 06:18:26;;;;;;;53.50;49.33;;;;;;;14.81;100.00;101899.95;2007770;71;32858;-70
2022/06/28 06:24:11;;;;;;;56.17;51.70;;;;;;;14.87;100.00;101893.21;2017324;71;33376;-70
2022/06/28 06:29:55;;;;;;;57.57;53.37;;;;;;;14.96;100.00;101892.88;2009591;70;33440;-68
2022/06/28 06:35:39;;;;;;;54.03;50.07;;;;;;;15.12;100.00;101888.84;2016723;71;32891;-68
2022/06/28 06:41:24;;;;;;;53.43;49.33;;;;;;;15.15;100.00;101882.66;2011346;71;32855;-70
2022/06/28 06:47:08;;;;;;;51.37;48.07;;;;;;;15.25;100.00;101885.39;1998912;70;33437;-70
2022/06/28 06:52:52;;;;;;;52.53;48.73;;;;;;;15.34;100.00;101879.45;2006542;71;32738;-70
2022/06/28 06:58:38;;;;;;;52.30;48.63;;;;;;;15.43;100.00;101869.86;2016903;71;32892;-70
2022/06/28 07:04:22;;;;;;;50.67;47.27;;;;;;;15.62;100.00;101864.38;2010097;71;33371;-70
2022/06/28 07:10:07;;;;;;;52.03;48.37;;;;;;;15.81;100.00;101866.73;2004450;71;32776;-70
2022/06/28 07:15:53;;;;;;;49.10;45.83;;;;;;;15.89;100.00;101864.13;2002632;71;32965;-69
2022/06/28 07:21:38;;;;;;;47.20;43.73;;;;;;;16.15;100.00;101870.28;2002786;71;33367;-70
2022/06/28 07:27:23;;;;;;;44.30;40.97;;;;;;;16.26;100.00;101863.97;2008261;70;32787;-69
2022/06/28 07:33:09;;;;;;;42.30;39.17;;;;;;;16.62;100.00;101846.16;1995347;71;32889;-68
2022/06/28 07:38:54;;;;;;;39.30;36.50;;;;;;;16.92;100.00;101853.30;2016887;70;32889;-68
2022/06/28 07:44:39;;;;;;;38.03;35.53;;;;;;;17.13;100.00;101855.50;2013810;71;33373;-69
2022/06/28 07:56:25;;;;;;;28.10;26.40;;;;;;;18.15;100.00;101847.50;2015100;71;32855;-68
2022/06/28 08:02:10;;;;;;;25.97;24.20;;;;;;;18.41;100.00;101838.80;2016837;71;30910;-66
2022/06/28 08:07:54;;;;;;;23.67;21.90;;;;;;;19.10;100.00;101833.87;1988981;71;33334;-68
2022/06/28 08:13:39;;;;;;;25.53;23.73;;;;;;;18.98;100.00;101826.58;2004149;71;30980;-68
2022/06/28 08:19:23;;;;;;;23.83;22.40;;;;;;;18.37;100.00;101844.80;2004237;71;30991;-67
2022/06/28 08:25:10;;;;;;;25.93;24.27;;;;;;;18.14;100.00;101843.05;1995061;71;31016;-67
2022/06/28 08:30:54;;;;;;;24.60;23.10;;;;;;;18.60;100.00;101832.52;2018525;70;30953;-68
2022/06/28 08:36:39;;;;;;;23.33;21.93;;;;;;;18.83;100.00;101823.53;2002575;71;31399;-70
2022/06/28 08:42:27;;;;;;;22.43;21.03;;;;;;;19.61;100.00;101808.08;2002877;71;31353;-70
2022/06/28 08:48:19;;;;;;;19.40;18.17;;;;;;;19.98;100.00;101793.49;2013331;71;31561;-70
2022/06/28 08:54:07;;;;;;;20.60;19.30;;;;;;;18.80;100.00;101797.43;2013372;71;30954;-68
2022/06/28 08:59:53;;;;;;;21.07;19.67;;;;;;;18.43;100.00;101805.58;2007914;71;31567;-69
2022/06/28 09:05:39;;;;;;;21.67;20.17;;;;;;;18.31;100.00;101803.88;1999246;71;31369;-69
2022/06/28 09:11:25;;;;;;;21.40;20.00;;;;;;;18.38;100.00;101791.62;2000782;71;30844;-67
2022/06/28 09:17:24;;;;;;;19.60;18.43;;;;;;;18.89;100.00;101772.16;2002799;71;30825;-68
2022/06/28 09:23:27;;;;;;;16.70;15.80;;;;;;;19.89;100.00;101755.16;2016917;71;31023;-68
2022/06/28 09:29:14;;;;;;;18.20;17.20;;;;;;;19.15;100.00;101765.33;2014790;71;31457;-68
2022/06/28 09:35:01;;;;;;;19.93;18.60;;;;;;;18.82;100.00;101769.81;1998574;71;31058;-69
2022/06/28 09:40:55;;;;;;;18.43;17.23;;;;;;;18.83;100.00;101768.63;2011803;70;30989;-68
2022/06/28 09:46:47;;;;;;;18.07;16.93;;;;;;;18.95;100.00;101770.91;2017010;71;31431;-68
2022/06/28 09:52:32;;;;;;;19.00;17.70;;;;;;;19.10;100.00;101769.94;2013517;71;30962;-67
2022/06/28 09:58:20;;;;;;;18.83;17.73;;;;;;;18.87;100.00;101761.21;1995554;71;31418;-66
2022/06/28 10:04:07;;;;;;;19.27;18.13;;;;;;;18.79;100.00;101752.70;2002267;71;30958;-68
2022/06/28 10:09:52;;;;;;;20.23;19.03;;;;;;;18.51;100.00;101763.19;2000447;71;32910;-67
2022/06/28 10:15:40;;;;;;;17.87;16.90;;;;;;;18.90;100.00;101746.52;2010328;71;31362;-67
2022/06/28 10:21:46;;;;;;;17.57;16.47;;;;;;;19.10;100.00;101746.56;2001023;71;33451;-67
2022/06/28 10:27:33;;;;;;;21.63;20.23;;;;;;;19.04;100.00;101744.45;1997174;71;32903;-67
2022/06/28 10:33:43;;;;;;;13.53;12.83;;;;;;;19.64;100.00;101727.69;2015020;71;31011;-65
2022/06/28 10:39:32;;;;;;;11.97;11.20;;;;;;;20.18;100.00;101708.02;2015450;71;31499;-67
2022/06/28 10:45:30;;;;;;;12.17;11.20;;;;;;;20.23;100.00;101710.12;2006490;71;30868;-67
2022/06/28 10:51:27;;;;;;;11.10;10.50;;;;;;;20.38;100.00;101708.82;1998724;71;33363;-66
2022/06/28 10:57:24;;;;;;;11.10;10.40;;;;;;;20.68;100.00;101702.77;2013489;71;31023;-66
2022/06/28 11:03:10;;;;;;;11.53;10.80;;;;;;;20.01;100.00;101710.23;2011532;71;30930;-67
2022/06/28 11:09:05;;;;;;;11.07;10.57;;;;;;;20.21;100.00;101703.12;1947008;72;30945;-66
2022/06/28 11:14:53;;;;;;;11.60;10.70;;;;;;;20.59;100.00;101697.70;2011546;71;30998;-66
2022/06/28 11:20:40;;;;;;;11.50;10.90;;;;;;;20.62;100.00;101706.94;2004541;71;31327;-67
2022/06/28 11:32:31;;;;;;;10.70;10.10;;;;;;;20.51;100.00;101694.30;2012167;71;31334;-67
2022/06/28 11:38:20;;;;;;;10.20;9.50;;;;;;;20.37;100.00;101694.45;2000550;71;30937;-67
2022/06/28 11:44:07;;;;;;;10.47;9.93;;;;;;;20.41;100.00;101696.28;2015072;71;30945;-67
2022/06/28 11:49:55;;;;;;;11.10;10.43;;;;;;;20.39;100.00;101689.33;2002751;71;31327;-67
2022/06/28 11:55:43;;;;;;;10.73;10.03;;;;;;;20.66;100.00;101688.17;2009890;71;30916;-66
2022/06/28 12:01:40;;;;;;;10.60;10.00;;;;;;;20.80;100.00;101685.41;2008004;71;30802;-66
2022/06/28 12:07:38;;;;;;;10.23;9.60;;;;;;;21.06;100.00;101678.88;1988366;71;30850;-66
2022/06/28 12:13:29;;;;;;;10.87;10.27;;;;;;;20.54;100.00;101677.52;2015774;71;30869;-67
2022/06/28 12:19:19;;;;;;;10.47;9.87;;;;;;;20.83;100.00;101656.52;2013254;71;30876;-70
2022/06/28 12:25:18;;;;;;;10.80;10.10;;;;;;;20.89;100.00;101661.38;2009477;71;30932;-70
2022/06/28 12:31:04;;;;;;;10.13;9.57;;;;;;;21.07;100.00;101651.70;2015097;70;30971;-69
2022/06/28 12:36:50;;;;;;;11.57;10.93;;;;;;;20.99;100.00;101654.56;2005933;71;30874;-69
2022/06/28 12:42:37;;;;;;;11.03;10.10;;;;;;;21.02;100.00;101643.41;1997763;71;31462;-68
2022/06/28 12:48:23;;;;;;;10.40;9.50;;;;;;;21.12;100.00;101639.40;2016657;71;30858;-68
2022/06/28 12:54:09;;;;;;;10.63;10.03;;;;;;;21.09;100.00;101655.62;2018422;71;30862;-67
2022/06/28 12:59:53;;;;;;;10.20;9.63;;;;;;;21.20;100.00;101635.74;2002829;71;30857;-68
2022/06/28 13:05:39;;;;;;;11.17;10.23;;;;;;;21.03;100.00;101618.23;2007942;71;31515;-67
2022/06/28 13:11:24;;;;;;;10.00;9.30;;;;;;;21.53;100.00;101612.72;1998988;71;30959;-69
2022/06/28 13:17:09;;;;;;;10.47;9.97;;;;;;;21.34;100.00;101605.27;2011858;71;30809;-68
2022/06/28 13:22:53;;;;;;;10.37;9.73;;;;;;;21.56;100.00;101602.17;2005740;70;30944;-68
2022/06/28 13:28:38;;;;;;;10.43;9.93;;;;;;;21.54;100.00;101610.15;2007488;71;30875;-69
2022/06/28 13:34:22;;;;;;;10.33;9.83;;;;;;;21.27;100.00;101597.30;2004649;71;31282;-67
2022/06/28 13:40:10;;;;;;;10.13;9.63;;;;;;;21.69;100.00;101588.34;2004455;70;30845;-68
2022/06/28 13:45:54;;;;;;;10.87;10.03;;;;;;;21.42;100.00;101583.78;2007576;71;30850;-69
2022/06/28 13:51:42;;;;;;;9.87;9.30;;;;;;;21.61;100.00;101586.39;2008184;71;30867;-68
2022/06/28 13:57:27;;;;;;;10.20;9.60;;;;;;;21.59;100.00;101587.34;2009578;71;30869;-68
2022/06/28 14:03:13;;;;;;;10.00;9.60;;;;;;;21.62;100.00;101580.99;2005831;71;30914;-68
2022/06/28 14:08:59;;;;;;;10.63;9.83;;;;;;;21.50;100.00;101582.90;1968473;72;31086;-68
2022/06/28 14:14:45;;;;;;;10.28;9.65;;;;;;;21.70;100.00;101570.20;1995514;71;31393;-69
2022/06/28 14:20:32;;;;;;;10.32;9.73;;;;;;;21.83;100.00;101582.42;2000569;71;30862;-69
2022/06/28 14:26:17;;;;;;;10.10;9.67;;;;;;;21.92;100.00;101575.30;2014858;71;31376;-69
2022/06/28 14:32:02;;;;;;;10.50;9.90;;;;;;;21.82;100.00;101579.97;2009897;71;30797;-70
2022/06/28 14:37:46;;;;;;;9.43;9.03;;;;;;;21.87;100.00;101572.66;2002817;71;30948;-68
2022/06/28 14:43:30;;;;;;;10.53;9.93;;;;;;;21.45;100.00;101561.89;2009368;71;30876;-70
2022/06/28 14:49:15;;;;;;;10.60;10.00;;;;;;;21.75;100.00;101567.18;2016926;71;31370;-69
2022/06/28 14:55:00;;;;;;;10.03;9.60;;;;;;;21.69;100.00;101559.26;2011805;71;30825;-69
2022/06/28 15:00:47;;;;;;;10.17;9.70;;;;;;;21.66;100.00;101554.27;2013487;71;30867;-68
2022/06/28 15:06:33;;;;;;;10.30;9.80;;;;;;;21.78;100.00;101557.17;2005725;71;30863;-69
2022/06/28 15:12:20;;;;;;;10.77;9.87;;;;;;;21.81;100.00;101557.92;2015065;71;30863;-68
2022/06/28 15:18:09;;;;;;;11.13;10.53;;;;;;;21.75;100.00;101564.94;1993474;71;30789;-68
2022/06/28 15:36:00;;;;;;;10.23;9.53;;;;;;;21.45;100.00;101547.17;2015319;70;31366;-69
2022/06/28 15:41:46;;;;;;;10.43;9.83;;;;;;;21.20;100.00;101548.14;2000822;71;30849;-68
2022/06/28 15:47:32;;;;;;;14.70;14.00;;;;;;;21.49;100.00;101541.08;1997385;70;33380;-67
2022/06/28 15:53:18;;;;;;;10.20;9.60;;;;;;;21.73;100.00;101540.43;2000696;71;30889;-67
2022/06/28 15:59:03;;;;;;;10.77;10.17;;;;;;;21.33;100.00;101532.37;1994943;71;30875;-68
2022/06/28 16:04:47;;;;;;;10.47;9.87;;;;;;;21.46;100.00;101528.22;2009890;71;30873;-69
2022/06/28 16:10:34;;;;;;;10.33;9.63;;;;;;;21.33;100.00;101520.23;2015166;71;30923;-70
2022/06/28 16:16:21;;;;;;;10.77;10.17;;;;;;;21.23;100.00;101534.73;2013254;71;30973;-66
2022/06/28 16:22:06;;;;;;;9.93;9.43;;;;;;;21.22;100.00;101513.33;2009336;71;30894;-70
2022/06/28 16:27:52;;;;;;;9.50;9.00;;;;;;;21.26;100.00;101519.37;2004288;71;33350;-67
2022/06/28 16:33:37;;;;;;;10.27;9.50;;;;;;;21.02;100.00;101516.29;2018506;71;30926;-68
2022/06/28 16:39:23;;;;;;;9.20;8.70;;;;;;;20.72;100.00;101509.77;2017008;71;30904;-70
2022/06/28 16:45:11;;;;;;;9.47;9.03;;;;;;;20.69;100.00;101510.45;1997429;71;31388;-67
2022/06/28 16:50:56;;;;;;;8.90;8.30;;;;;;;20.94;100.00;101510.67;2016985;71;31395;-73
2022/06/28 16:56:40;;;;;;;10.40;9.80;;;;;;;20.90;100.00;101509.13;1998558;71;30800;-67
2022/06/28 17:02:25;;;;;;;10.45;9.78;;;;;;;20.84;100.00;101509.88;2015199;70;30989;-68
2022/06/28 17:08:13;;;;;;;9.80;9.10;;;;;;;20.75;100.00;101508.28;2003998;71;30945;-67
2022/06/28 17:13:58;;;;;;;10.70;9.90;;;;;;;20.69;100.00;101503.39;2012984;71;30882;-69
2022/06/28 17:19:45;;;;;;;10.07;9.27;;;;;;;20.76;100.00;101494.39;2009379;71;30983;-67
2022/06/28 17:25:31;;;;;;;10.30;9.60;;;;;;;20.73;100.00;101490.84;2011427;71;33455;-66
2022/06/28 17:31:17;;;;;;;13.10;11.70;;;;;;;20.60;100.00;101495.53;1999092;71;30865;-68
2022/06/28 17:37:03;;;;;;;10.07;9.57;;;;;;;20.62;100.00;101474.03;2002893;71;31285;-66
2022/06/28 17:42:47;;;;;;;9.90;9.37;;;;;;;20.58;100.00;101481.53;2000834;71;30938;-69
2022/06/28 17:48:31;;;;;;;10.63;9.83;;;;;;;20.43;100.00;101476.66;2016850;71;31442;-70
2022/06/28 17:54:17;;;;;;;9.60;9.10;;;;;;;20.43;100.00;101481.47;2000872;71;30863;-68
2022/06/28 18:00:04;;;;;;;10.03;9.30;;;;;;;20.00;100.00;101480.11;2000944;71;30863;-68
2022/06/28 18:05:49;;;;;;;10.67;9.97;;;;;;;20.16;100.00;101473.36;2000814;71;31364;-68
2022/06/28 18:11:34;;;;;;;10.17;9.53;;;;;;;19.93;100.00;101481.21;1995291;71;30903;-67
2022/06/28 18:17:19;;;;;;;10.27;9.60;;;;;;;19.90;100.00;101481.28;1991841;71;31359;-72
2022/06/28 18:23:04;;;;;;;10.00;9.30;;;;;;;19.74;100.00;101483.52;2013245;71;31000;-74
2022/06/28 18:28:50;;;;;;;10.40;9.70;;;;;;;19.68;100.00;101474.39;2003865;71;30915;-69
2022/06/28 18:34:35;;;;;;;10.43;9.80;;;;;;;19.78;100.00;101471.25;2004702;71;31321;-69
2022/06/28 18:40:19;;;;;;;10.40;9.70;;;;;;;19.72;100.00;101472.60;2004441;71;30840;-70
2022/06/28 18:46:04;;;;;;;10.00;9.40;;;;;;;19.82;100.00;101471.41;2000722;71;30846;-70
2022/06/28 18:51:48;;;;;;;10.93;10.23;;;;;;;19.86;100.00;101472.41;2004455;71;30853;-71
2022/06/28 18:57:32;;;;;;;10.60;9.90;;;;;;;19.81;100.00;101470.58;2014924;71;31001;-71
2022/06/28 19:03:17;;;;;;;10.10;9.50;;;;;;;19.90;100.00;101475.64;2006398;71;30976;-71
2022/06/28 19:09:01;;;;;;;10.03;9.43;;;;;;;19.79;100.00;101463.63;1956507;72;30938;-71
2022/06/28 19:14:46;;;;;;;9.83;9.20;;;;;;;19.58;100.00;101459.25;2014943;71;30921;-71
2022/06/28 19:20:30;;;;;;;10.53;9.70;;;;;;;19.40;100.00;101460.34;2000209;71;30924;-70
2022/06/28 19:26:14;;;;;;;10.37;9.63;;;;;;;19.34;100.00;101463.09;2011488;71;30869;-70
2022/06/28 19:31:58;;;;;;;10.40;9.67;;;;;;;19.29;100.00;101452.81;2016813;71;31502;-71
2022/06/28 19:37:46;;;;;;;9.10;8.50;;;;;;;19.34;100.00;101451.22;1995330;71;30843;-71
2022/06/28 19:43:30;;;;;;;8.53;8.13;;;;;;;19.17;100.00;101453.21;1995436;71;30793;-68
2022/06/28 19:49:17;;;;;;;9.67;8.97;;;;;;;19.00;100.00;101451.98;2004750;71;30851;-67
2022/06/28 19:55:01;;;;;;;9.93;9.30;;;;;;;19.02;100.00;101455.32;2017038;71;33424;-68
2022/06/28 20:00:48;;;;;;;10.80;10.00;;;;;;;18.91;100.00;101455.36;2000081;71;30860;-67
2022/06/28 20:06:32;;;;;;;9.90;9.13;;;;;;;18.85;100.00;101451.05;2015044;71;30946;-68
2022/06/28 20:12:18;;;;;;;10.37;9.70;;;;;;;18.92;100.00;101459.83;2003991;71;30898;-70
2022/06/28 20:18:03;;;;;;;10.30;9.60;;;;;;;18.82;100.00;101453.69;2016876;71;30930;-70
2022/06/28 20:23:48;;;;;;;9.93;9.33;;;;;;;18.71;100.00;101453.72;1995259;71;30828;-68
2022/06/28 20:29:33;;;;;;;10.20;9.60;;;;;;;18.72;100.00;101455.38;2004511;71;30945;-69
2022/06/28 20:35:18;;;;;;;10.40;9.70;;;;;;;18.57;100.00;101457.46;2013355;71;30865;-69
2022/06/28 20:47:05;;;;;;;10.00;9.33;;;;;;;18.46;100.00;101470.70;1995255;71;30924;-72
2022/06/28 20:52:49;;;;;;;10.50;9.77;;;;;;;18.39;100.00;101465.56;2000873;71;30899;-71
2022/06/28 20:58:33;;;;;;;10.37;9.67;;;;;;;18.29;100.00;101470.61;2009482;71;31073;-72
2022/06/28 21:04:18;;;;;;;10.73;10.07;;;;;;;18.13;100.00;101473.84;2009449;71;30921;-73
2022/06/28 21:10:03;;;;;;;10.97;9.93;;;;;;;18.09;100.00;101467.20;2011340;71;30875;-69
2022/06/28 21:15:47;;;;;;;11.13;10.40;;;;;;;18.03;100.00;101465.66;2004619;71;30884;-70
2022/06/28 21:21:32;;;;;;;10.63;9.93;;;;;;;18.00;100.00;101469.12;2005902;71;31500;-69
2022/06/28 21:27:16;;;;;;;10.50;9.77;;;;;;;18.06;100.00;101457.98;2016913;71;30922;-69
2022/06/28 21:33:00;;;;;;;9.90;9.17;;;;;;;18.00;100.00;101457.88;2006202;71;30824;-69
2022/06/28 21:35:35;;;;;;;9.87;9.20;;;;;;;17.92;100.00;101453.59;1976352;72;24166;-71
2022/06/28 21:41:20;;;;;;;10.53;9.83;;;;;;;17.84;100.00;101444.53;2008239;71;32875;-69
2022/06/28 21:47:04;;;;;;;11.20;10.40;;;;;;;17.69;100.00;101433.09;2000508;70;31008;-71
2022/06/28 21:52:48;;;;;;;11.63;10.93;;;;;;;17.63;100.00;101432.38;2013329;71;30884;-71
2022/06/28 21:58:33;;;;;;;11.50;10.70;;;;;;;17.40;100.00;101427.03;2010156;71;30854;-71
2022/06/28 22:04:18;;;;;;;11.93;11.13;;;;;;;17.24;100.00;101420.34;1991481;71;32770;-71
2022/06/28 22:10:05;;;;;;;11.57;10.87;;;;;;;17.34;100.00;101414.24;2013368;71;33004;-72
2022/06/28 22:15:50;;;;;;;12.20;11.30;;;;;;;17.20;100.00;101406.69;2016910;71;30949;-71
2022/06/28 22:21:35;;;;;;;11.47;10.70;;;;;;;17.21;100.00;101394.32;2016609;71;32855;-70
2022/06/28 22:27:21;;;;;;;12.50;11.60;;;;;;;17.07;100.00;101394.12;2018600;71;32829;-70
2022/06/28 22:33:06;;;;;;;13.13;12.33;;;;;;;17.15;100.00;101384.38;2000944;71;32770;-72
2022/06/28 22:38:50;;;;;;;13.27;12.37;;;;;;;17.04;100.00;101382.09;2006452;71;32944;-71
2022/06/28 22:44:34;;;;;;;12.27;11.57;;;;;;;17.24;100.00;101378.23;2011539;71;31370;-71
2022/06/28 22:50:19;;;;;;;11.83;10.93;;;;;;;17.24;100.00;101371.81;2011381;71;33381;-71
2022/06/28 22:56:03;;;;;;;12.80;11.90;;;;;;;17.18;100.00;101363.25;2018605;71;30923;-71
2022/06/28 23:01:47;;;;;;;12.50;11.67;;;;;;;17.37;100.00;101351.84;1991877;71;31313;-72
2022/06/28 23:07:31;;;;;;;12.60;11.87;;;;;;;17.32;100.00;101347.19;2006397;70;30890;-71
2022/06/28 23:13:16;;;;;;;12.40;11.50;;;;;;;17.29;100.00;101352.84;2013552;71;33410;-71
2022/06/28 23:19:01;;;;;;;12.80;12.10;;;;;;;17.29;100.00;101340.21;2003906;71;33195;-72
2022/06/28 23:24:45;;;;;;;13.17;12.37;;;;;;;17.24;100.00;101347.34;2017061;71;32850;-72
2022/06/28 23:30:29;;;;;;;13.90;13.00;;;;;;;17.15;100.00;101340.86;2009990;71;32839;-71
2022/06/28 23:36:13;;;;;;;13.90;13.00;;;;;;;17.20;100.00;101336.50;1995376;71;32817;-72
2022/06/28 23:41:57;;;;;;;14.50;13.70;;;;;;;17.09;100.00;101335.66;2005867;71;32965;-71
2022/06/28 23:47:42;;;;;;;15.20;14.30;;;;;;;16.98;100.00;101332.29;2011486;71;33000;-71
2022/06/28 23:53:26;;;;;;;17.50;16.30;;;;;;;16.79;100.00;101318.97;2015102;71;33448;-72
2022/06/28 23:59:10;;;;;;;17.13;16.10;;;;;;;16.91;100.00;101318.41;2013539;71;33355;-72
